sensor_id;sensor_type;location;lat;lon;timestamp;pressure;altitude;pressure_sealevel;temperature;humidity
38612;BME280;24368;52.156;20.788;2023-11-21T00:05:00;99738.98;;;0.63;100.00
38612;BME280;24368;52.156;20.788;2023-11-21T00:10:01;99743.09;;;0.64;100.00
38612;BME280;24368;52.156;20.788;2023-11-21T00:15:04;99748.69;;;0.58;100.00
38612;BME280;24368;52.156;20.788;2023-11-21T00:20:14;99754.46;;;0.53;100.00
38612;BME280;24368;52.156;20.788;2023-11-21T00:25:16;99756.70;;;0.51;100.00
38612;BME280;24368;52.156;20.788;2023-11-21T00:30:18;99764.69;;;0.48;100.00
38612;BME280;24368;52.156;20.788;2023-11-21T00:35:21;99776.42;;;0.51;100.00
38612;BME280;24368;52.156;20.788;2023-11-21T00:40:22;99775.21;;;0.56;100.00
38612;BME280;24368;52.156;20.788;2023-11-21T00:45:23;99776.90;;;0.57;100.00
38612;BME280;24368;52.156;20.788;2023-11-21T00:50:24;99775.89;;;0.49;100.00
38612;BME280;24368;52.156;20.788;2023-11-21T00:55:25;99777.48;;;0.46;100.00
38612;BME280;24368;52.156;20.788;2023-11-21T01:00:27;99781.38;;;0.42;100.00
38612;BME280;24368;52.156;20.788;2023-11-21T01:05:28;99778.77;;;0.44;100.00
38612;BME280;24368;52.156;20.788;2023-11-21T01:10:30;99779.17;;;0.44;100.00
38612;BME280;24368;52.156;20.788;2023-11-21T01:15:31;99784.93;;;0.33;100.00
38612;BME280;24368;52.156;20.788;2023-11-21T01:20:33;99790.75;;;0.29;100.00
38612;BME280;24368;52.156;20.788;2023-11-21T01:25:33;99794.10;;;0.36;100.00
38612;BME280;24368;52.156;20.788;2023-11-21T01:30:34;99799.85;;;0.30;100.00
38612;BME280;24368;52.156;20.788;2023-11-21T01:35:36;99801.69;;;0.26;100.00
38612;BME280;24368;52.156;20.788;2023-11-21T01:40:37;99804.13;;;0.22;100.00
38612;BME280;24368;52.156;20.788;2023-11-21T01:45:38;99803.47;;;0.17;100.00
38612;BME280;24368;52.156;20.788;2023-11-21T01:50:41;99805.63;;;0.21;100.00
38612;BME280;24368;52.156;20.788;2023-11-21T01:55:45;99808.40;;;0.21;100.00
38612;BME280;24368;52.156;20.788;2023-11-21T02:00:46;99805.34;;;0.23;100.00
38612;BME280;24368;52.156;20.788;2023-11-21T02:05:49;99803.70;;;0.21;100.00
38612;BME280;24368;52.156;20.788;2023-11-21T02:10:51;99801.55;;;0.14;100.00
38612;BME280;24368;52.156;20.788;2023-11-21T02:15:52;99806.48;;;0.08;100.00
38612;BME280;24368;52.156;20.788;2023-11-21T02:20:55;99812.30;;;0.09;100.00
38612;BME280;24368;52.156;20.788;2023-11-21T02:25:57;99819.05;;;0.12;100.00
38612;BME280;24368;52.156;20.788;2023-11-21T02:30:58;99821.54;;;0.06;100.00
38612;BME280;24368;52.156;20.788;2023-11-21T02:36:01;99821.96;;;-0.03;100.00
38612;BME280;24368;52.156;20.788;2023-11-21T02:41:02;99825.00;;;-0.05;100.00
38612;BME280;24368;52.156;20.788;2023-11-21T02:46:05;99826.64;;;-0.06;100.00
38612;BME280;24368;52.156;20.788;2023-11-21T02:51:06;99829.83;;;0.01;100.00
38612;BME280;24368;52.156;20.788;2023-11-21T02:56:07;99834.92;;;-0.08;100.00
38612;BME280;24368;52.156;20.788;2023-11-21T03:01:09;99836.43;;;-0.08;100.00
38612;BME280;24368;52.156;20.788;2023-11-21T03:06:10;99831.48;;;-0.11;100.00
38612;BME280;24368;52.156;20.788;2023-11-21T03:11:11;99836.73;;;-0.20;100.00
38612;BME280;24368;52.156;20.788;2023-11-21T03:16:15;99835.90;;;-0.18;100.00
38612;BME280;24368;52.156;20.788;2023-11-21T03:21:16;99837.35;;;-0.16;100.00
38612;BME280;24368;52.156;20.788;2023-11-21T03:26:17;99846.27;;;-0.15;100.00
38612;BME280;24368;52.156;20.788;2023-11-21T03:31:18;99851.96;;;-0.20;100.00
38612;BME280;24368;52.156;20.788;2023-11-21T03:36:20;99857.39;;;-0.24;100.00
38612;BME280;24368;52.156;20.788;2023-11-21T03:41:21;99851.48;;;-0.35;100.00
38612;BME280;24368;52.156;20.788;2023-11-21T03:46:22;99857.52;;;-0.37;100.00
38612;BME280;24368;52.156;20.788;2023-11-21T03:51:23;99865.33;;;-0.29;100.00
38612;BME280;24368;52.156;20.788;2023-11-21T03:56:24;99875.39;;;-0.27;100.00
38612;BME280;24368;52.156;20.788;2023-11-21T04:01:25;99878.48;;;-0.32;100.00
38612;BME280;24368;52.156;20.788;2023-11-21T04:06:26;99879.44;;;-0.33;100.00
38612;BME280;24368;52.156;20.788;2023-11-21T04:11:27;99881.59;;;-0.45;100.00
38612;BME280;24368;52.156;20.788;2023-11-21T04:16:30;99884.54;;;-0.43;100.00
38612;BME280;24368;52.156;20.788;2023-11-21T04:21:31;99891.36;;;-0.41;100.00
38612;BME280;24368;52.156;20.788;2023-11-21T04:26:34;99890.34;;;-0.36;100.00
38612;BME280;24368;52.156;20.788;2023-11-21T04:31:35;99889.89;;;-0.34;100.00
38612;BME280;24368;52.156;20.788;2023-11-21T04:36:36;99904.62;;;-0.35;100.00
38612;BME280;24368;52.156;20.788;2023-11-21T04:41:37;99910.34;;;-0.32;100.00
38612;BME280;24368;52.156;20.788;2023-11-21T04:46:41;99912.81;;;-0.44;100.00
38612;BME280;24368;52.156;20.788;2023-11-21T04:51:42;99916.20;;;-0.48;100.00
38612;BME280;24368;52.156;20.788;2023-11-21T04:56:43;99913.34;;;-0.46;100.00
38612;BME280;24368;52.156;20.788;2023-11-21T05:01:44;99912.14;;;-0.44;100.00
38612;BME280;24368;52.156;20.788;2023-11-21T05:06:45;99912.14;;;-0.39;100.00
38612;BME280;24368;52.156;20.788;2023-11-21T05:11:47;99919.11;;;-0.39;100.00
38612;BME280;24368;52.156;20.788;2023-11-21T05:16:48;99928.55;;;-0.44;100.00
38612;BME280;24368;52.156;20.788;2023-11-21T05:21:49;99941.71;;;-0.46;100.00
38612;BME280;24368;52.156;20.788;2023-11-21T05:26:50;99946.84;;;-0.48;100.00
38612;BME280;24368;52.156;20.788;2023-11-21T05:31:51;99953.80;;;-0.49;100.00
38612;BME280;24368;52.156;20.788;2023-11-21T05:36:53;99956.73;;;-0.46;100.00
38612;BME280;24368;52.156;20.788;2023-11-21T05:41:54;99959.34;;;-0.43;100.00
38612;BME280;24368;52.156;20.788;2023-11-21T05:46:56;99965.05;;;-0.43;100.00
38612;BME280;24368;52.156;20.788;2023-11-21T05:51:59;99963.02;;;-0.58;100.00
38612;BME280;24368;52.156;20.788;2023-11-21T05:57:00;99969.22;;;-0.63;100.00
38612;BME280;24368;52.156;20.788;2023-11-21T06:02:02;99973.16;;;-0.60;100.00
38612;BME280;24368;52.156;20.788;2023-11-21T06:07:03;99981.04;;;-0.59;100.00
38612;BME280;24368;52.156;20.788;2023-11-21T06:12:05;99990.89;;;-0.61;100.00
38612;BME280;24368;52.156;20.788;2023-11-21T06:17:06;100002.27;;;-0.67;100.00
38612;BME280;24368;52.156;20.788;2023-11-21T06:22:07;100012.33;;;-0.67;100.00
38612;BME280;24368;52.156;20.788;2023-11-21T06:27:09;100016.42;;;-0.72;100.00
38612;BME280;24368;52.156;20.788;2023-11-21T06:32:10;100011.77;;;-0.72;100.00
38612;BME280;24368;52.156;20.788;2023-11-21T06:37:11;100017.13;;;-0.69;100.00
38612;BME280;24368;52.156;20.788;2023-11-21T06:42:12;100019.23;;;-0.69;100.00
38612;BME280;24368;52.156;20.788;2023-11-21T06:47:14;100024.49;;;-0.62;100.00
38612;BME280;24368;52.156;20.788;2023-11-21T06:52:15;100029.98;;;-0.73;100.00
38612;BME280;24368;52.156;20.788;2023-11-21T06:57:16;100044.02;;;-0.80;100.00
38612;BME280;24368;52.156;20.788;2023-11-21T07:02:18;100054.52;;;-0.79;100.00
38612;BME280;24368;52.156;20.788;2023-11-21T07:07:19;100057.58;;;-0.75;100.00
38612;BME280;24368;52.156;20.788;2023-11-21T07:12:20;100064.23;;;-0.67;100.00
38612;BME280;24368;52.156;20.788;2023-11-21T07:17:24;100065.02;;;-0.60;100.00
38612;BME280;24368;52.156;20.788;2023-11-21T07:22:25;100062.98;;;-0.66;100.00
38612;BME280;24368;52.156;20.788;2023-11-21T07:27:26;100071.36;;;-0.70;100.00
38612;BME280;24368;52.156;20.788;2023-11-21T07:32:27;100073.86;;;-0.72;100.00
38612;BME280;24368;52.156;20.788;2023-11-21T07:37:28;100077.79;;;-0.74;100.00
38612;BME280;24368;52.156;20.788;2023-11-21T07:42:29;100088.34;;;-0.74;100.00
38612;BME280;24368;52.156;20.788;2023-11-21T07:47:30;100086.20;;;-0.82;100.00
38612;BME280;24368;52.156;20.788;2023-11-21T07:52:35;100086.88;;;-0.76;100.00
38612;BME280;24368;52.156;20.788;2023-11-21T07:57:36;100090.62;;;-0.78;100.00
38612;BME280;24368;52.156;20.788;2023-11-21T08:02:41;100087.17;;;-0.75;100.00
38612;BME280;24368;52.156;20.788;2023-11-21T08:07:43;100088.64;;;-0.80;100.00
38612;BME280;24368;52.156;20.788;2023-11-21T08:12:44;100095.64;;;-0.81;100.00
38612;BME280;24368;52.156;20.788;2023-11-21T08:17:46;100095.90;;;-0.76;100.00
38612;BME280;24368;52.156;20.788;2023-11-21T08:22:47;100093.89;;;-0.77;100.00
38612;BME280;24368;52.156;20.788;2023-11-21T08:27:49;100101.04;;;-0.76;100.00
38612;BME280;24368;52.156;20.788;2023-11-21T08:32:50;100116.66;;;-0.70;100.00
38612;BME280;24368;52.156;20.788;2023-11-21T08:37:52;100121.33;;;-0.67;100.00
38612;BME280;24368;52.156;20.788;2023-11-21T08:42:54;100127.09;;;-0.65;100.00
38612;BME280;24368;52.156;20.788;2023-11-21T08:47:55;100131.11;;;-0.72;100.00
38612;BME280;24368;52.156;20.788;2023-11-21T08:52:56;100133.78;;;-0.79;100.00
38612;BME280;24368;52.156;20.788;2023-11-21T08:57:57;100141.13;;;-0.74;100.00
38612;BME280;24368;52.156;20.788;2023-11-21T09:03:01;100144.12;;;-0.72;100.00
38612;BME280;24368;52.156;20.788;2023-11-21T09:08:03;100151.64;;;-0.77;100.00
38612;BME280;24368;52.156;20.788;2023-11-21T09:13:04;100160.63;;;-0.83;100.00
38612;BME280;24368;52.156;20.788;2023-11-21T09:18:06;100165.83;;;-0.89;100.00
38612;BME280;24368;52.156;20.788;2023-11-21T09:23:07;100161.44;;;-0.91;100.00
38612;BME280;24368;52.156;20.788;2023-11-21T09:28:08;100164.15;;;-0.81;100.00
38612;BME280;24368;52.156;20.788;2023-11-21T09:33:09;100166.98;;;-0.67;100.00
38612;BME280;24368;52.156;20.788;2023-11-21T09:38:11;100165.48;;;-0.53;100.00
38612;BME280;24368;52.156;20.788;2023-11-21T09:43:16;100156.95;;;-0.46;100.00
38612;BME280;24368;52.156;20.788;2023-11-21T09:48:20;100154.02;;;-0.40;100.00
38612;BME280;24368;52.156;20.788;2023-11-21T09:53:22;100153.43;;;-0.42;100.00
38612;BME280;24368;52.156;20.788;2023-11-21T09:58:27;100161.66;;;-0.37;100.00
38612;BME280;24368;52.156;20.788;2023-11-21T10:03:28;100171.86;;;-0.31;100.00
38612;BME280;24368;52.156;20.788;2023-11-21T10:08:29;100177.14;;;-0.27;100.00
38612;BME280;24368;52.156;20.788;2023-11-21T10:13:32;100178.77;;;-0.31;100.00
38612;BME280;24368;52.156;20.788;2023-11-21T10:18:34;100178.66;;;-0.38;100.00
38612;BME280;24368;52.156;20.788;2023-11-21T10:23:38;100178.23;;;-0.40;100.00
38612;BME280;24368;52.156;20.788;2023-11-21T10:28:39;100179.60;;;-0.45;100.00
38612;BME280;24368;52.156;20.788;2023-11-21T10:33:40;100183.27;;;-0.52;100.00
38612;BME280;24368;52.156;20.788;2023-11-21T10:38:42;100186.66;;;-0.42;100.00
38612;BME280;24368;52.156;20.788;2023-11-21T10:43:43;100191.86;;;-0.33;100.00
38612;BME280;24368;52.156;20.788;2023-11-21T10:48:45;100196.73;;;-0.24;100.00
38612;BME280;24368;52.156;20.788;2023-11-21T10:53:46;100193.70;;;-0.31;100.00
38612;BME280;24368;52.156;20.788;2023-11-21T10:58:49;100198.54;;;-0.35;100.00
38612;BME280;24368;52.156;20.788;2023-11-21T11:03:52;100194.98;;;-0.42;100.00
38612;BME280;24368;52.156;20.788;2023-11-21T11:08:55;100198.56;;;-0.32;100.00
38612;BME280;24368;52.156;20.788;2023-11-21T11:13:58;100196.45;;;-0.31;100.00
38612;BME280;24368;52.156;20.788;2023-11-21T11:19:00;100197.98;;;-0.31;100.00
38612;BME280;24368;52.156;20.788;2023-11-21T11:40:44;100214.95;;;-0.46;100.00
38612;BME280;24368;52.156;20.788;2023-11-21T11:45:46;100216.45;;;-0.45;100.00
38612;BME280;24368;52.156;20.788;2023-11-21T11:51:03;100217.30;;;-0.45;100.00
38612;BME280;24368;52.156;20.788;2023-11-21T12:01:27;100226.27;;;-0.54;100.00
38612;BME280;24368;52.156;20.788;2023-11-21T12:06:35;100222.70;;;-0.58;100.00
38612;BME280;24368;52.156;20.788;2023-11-21T12:11:36;100231.80;;;-0.53;100.00
38612;BME280;24368;52.156;20.788;2023-11-21T12:16:37;100234.52;;;-0.55;100.00
38612;BME280;24368;52.156;20.788;2023-11-21T12:21:39;100235.88;;;-0.52;100.00
38612;BME280;24368;52.156;20.788;2023-11-21T12:26:42;100245.00;;;-0.60;100.00
38612;BME280;24368;52.156;20.788;2023-11-21T12:31:44;100244.96;;;-0.63;100.00
38612;BME280;24368;52.156;20.788;2023-11-21T12:36:46;100239.91;;;-0.56;100.00
38612;BME280;24368;52.156;20.788;2023-11-21T12:41:48;100243.75;;;-0.51;100.00
38612;BME280;24368;52.156;20.788;2023-11-21T12:46:49;100247.79;;;-0.51;100.00
38612;BME280;24368;52.156;20.788;2023-11-21T12:51:51;100254.12;;;-0.57;100.00
38612;BME280;24368;52.156;20.788;2023-11-21T12:56:52;100256.83;;;-0.55;100.00
38612;BME280;24368;52.156;20.788;2023-11-21T13:01:54;100260.05;;;-0.60;100.00
38612;BME280;24368;52.156;20.788;2023-11-21T13:07:04;100263.61;;;-0.65;100.00
38612;BME280;24368;52.156;20.788;2023-11-21T13:12:15;100267.39;;;-0.62;100.00
38612;BME280;24368;52.156;20.788;2023-11-21T13:17:19;100272.59;;;-0.59;100.00
38612;BME280;24368;52.156;20.788;2023-11-21T13:22:23;100276.38;;;-0.58;100.00
38612;BME280;24368;52.156;20.788;2023-11-21T13:27:26;100286.02;;;-0.64;100.00
38612;BME280;24368;52.156;20.788;2023-11-21T13:32:27;100294.62;;;-0.69;100.00
38612;BME280;24368;52.156;20.788;2023-11-21T13:37:28;100308.54;;;-0.77;100.00
38612;BME280;24368;52.156;20.788;2023-11-21T13:42:33;100315.21;;;-0.82;100.00
38612;BME280;24368;52.156;20.788;2023-11-21T13:47:34;100315.88;;;-0.72;100.00
38612;BME280;24368;52.156;20.788;2023-11-21T13:52:38;100328.50;;;-0.65;100.00
38612;BME280;24368;52.156;20.788;2023-11-21T13:57:39;100343.16;;;-0.61;100.00
38612;BME280;24368;52.156;20.788;2023-11-21T14:02:40;100356.73;;;-0.66;100.00
38612;BME280;24368;52.156;20.788;2023-11-21T14:07:44;100369.20;;;-0.73;100.00
38612;BME280;24368;52.156;20.788;2023-11-21T14:12:49;100372.25;;;-0.81;100.00
38612;BME280;24368;52.156;20.788;2023-11-21T14:17:50;100377.58;;;-0.87;100.00
38612;BME280;24368;52.156;20.788;2023-11-21T14:22:51;100391.70;;;-0.89;100.00
38612;BME280;24368;52.156;20.788;2023-11-21T14:27:53;100405.73;;;-0.86;100.00
38612;BME280;24368;52.156;20.788;2023-11-21T14:32:54;100409.08;;;-0.88;100.00
38612;BME280;24368;52.156;20.788;2023-11-21T14:37:55;100423.48;;;-0.89;100.00
38612;BME280;24368;52.156;20.788;2023-11-21T14:42:59;100429.71;;;-0.88;100.00
38612;BME280;24368;52.156;20.788;2023-11-21T14:48:01;100435.98;;;-0.89;100.00
38612;BME280;24368;52.156;20.788;2023-11-21T14:53:05;100435.67;;;-0.93;100.00
38612;BME280;24368;52.156;20.788;2023-11-21T14:58:07;100437.02;;;-0.96;100.00
38612;BME280;24368;52.156;20.788;2023-11-21T15:03:13;100438.02;;;-0.95;100.00
38612;BME280;24368;52.156;20.788;2023-11-21T15:08:44;100446.86;;;-0.92;100.00
38612;BME280;24368;52.156;20.788;2023-11-21T15:13:49;100447.08;;;-0.93;100.00
38612;BME280;24368;52.156;20.788;2023-11-21T15:18:52;100448.77;;;-0.99;100.00
38612;BME280;24368;52.156;20.788;2023-11-21T15:23:57;100456.68;;;-1.05;100.00
38612;BME280;24368;52.156;20.788;2023-11-21T15:28:58;100463.13;;;-1.06;100.00
38612;BME280;24368;52.156;20.788;2023-11-21T15:33:59;100466.44;;;-1.04;100.00
38612;BME280;24368;52.156;20.788;2023-11-21T15:39:01;100468.94;;;-0.95;100.00
38612;BME280;24368;52.156;20.788;2023-11-21T15:44:02;100477.48;;;-0.96;100.00
38612;BME280;24368;52.156;20.788;2023-11-21T15:49:05;100484.09;;;-1.04;100.00
38612;BME280;24368;52.156;20.788;2023-11-21T15:54:13;100493.15;;;-1.08;100.00
38612;BME280;24368;52.156;20.788;2023-11-21T15:59:14;100501.87;;;-1.07;100.00
38612;BME280;24368;52.156;20.788;2023-11-21T16:04:17;100506.10;;;-1.04;100.00
38612;BME280;24368;52.156;20.788;2023-11-21T16:09:18;100515.95;;;-1.01;100.00
38612;BME280;24368;52.156;20.788;2023-11-21T16:14:30;100526.36;;;-0.98;100.00
38612;BME280;24368;52.156;20.788;2023-11-21T16:19:46;100537.98;;;-1.02;100.00
38612;BME280;24368;52.156;20.788;2023-11-21T16:24:47;100542.70;;;-1.07;100.00
38612;BME280;24368;52.156;20.788;2023-11-21T16:29:49;100547.29;;;-1.15;100.00
38612;BME280;24368;52.156;20.788;2023-11-21T16:34:50;100549.52;;;-1.19;100.00
38612;BME280;24368;52.156;20.788;2023-11-21T16:39:51;100552.23;;;-1.18;100.00
38612;BME280;24368;52.156;20.788;2023-11-21T16:44:52;100562.25;;;-1.21;100.00
38612;BME280;24368;52.156;20.788;2023-11-21T16:49:54;100571.23;;;-1.25;100.00
38612;BME280;24368;52.156;20.788;2023-11-21T16:54:55;100571.84;;;-1.19;100.00
38612;BME280;24368;52.156;20.788;2023-11-21T16:59:56;100575.39;;;-1.11;100.00
38612;BME280;24368;52.156;20.788;2023-11-21T17:04:58;100575.98;;;-1.05;100.00
38612;BME280;24368;52.156;20.788;2023-11-21T17:09:59;100581.27;;;-1.07;100.00
38612;BME280;24368;52.156;20.788;2023-11-21T17:15:01;100584.54;;;-1.14;100.00
38612;BME280;24368;52.156;20.788;2023-11-21T17:20:02;100588.70;;;-1.17;100.00
38612;BME280;24368;52.156;20.788;2023-11-21T17:25:09;100599.89;;;-1.24;100.00
38612;BME280;24368;52.156;20.788;2023-11-21T17:30:10;100617.59;;;-1.29;100.00
38612;BME280;24368;52.156;20.788;2023-11-21T17:35:13;100623.61;;;-1.25;100.00
38612;BME280;24368;52.156;20.788;2023-11-21T17:40:14;100627.08;;;-1.21;100.00
38612;BME280;24368;52.156;20.788;2023-11-21T17:45:16;100630.26;;;-1.23;100.00
38612;BME280;24368;52.156;20.788;2023-11-21T17:50:17;100630.25;;;-1.30;100.00
38612;BME280;24368;52.156;20.788;2023-11-21T17:55:18;100634.48;;;-1.32;100.00
38612;BME280;24368;52.156;20.788;2023-11-21T18:00:20;100640.10;;;-1.34;100.00
38612;BME280;24368;52.156;20.788;2023-11-21T18:05:21;100638.48;;;-1.29;100.00
38612;BME280;24368;52.156;20.788;2023-11-21T18:10:24;100646.07;;;-1.24;100.00
38612;BME280;24368;52.156;20.788;2023-11-21T18:15:25;100661.20;;;-1.22;100.00
38612;BME280;24368;52.156;20.788;2023-11-21T18:20:27;100672.77;;;-1.26;100.00
38612;BME280;24368;52.156;20.788;2023-11-21T18:25:28;100677.95;;;-1.30;100.00
38612;BME280;24368;52.156;20.788;2023-11-21T18:30:29;100683.67;;;-1.30;100.00
38612;BME280;24368;52.156;20.788;2023-11-21T18:35:31;100683.92;;;-1.32;100.00
38612;BME280;24368;52.156;20.788;2023-11-21T18:40:33;100690.65;;;-1.32;100.00
38612;BME280;24368;52.156;20.788;2023-11-21T18:45:34;100698.04;;;-1.38;100.00
38612;BME280;24368;52.156;20.788;2023-11-21T18:50:35;100697.33;;;-1.38;100.00
38612;BME280;24368;52.156;20.788;2023-11-21T18:55:36;100701.41;;;-1.40;100.00
38612;BME280;24368;52.156;20.788;2023-11-21T19:00:39;100702.02;;;-1.42;100.00
38612;BME280;24368;52.156;20.788;2023-11-21T19:05:40;100706.84;;;-1.38;100.00
38612;BME280;24368;52.156;20.788;2023-11-21T19:10:42;100719.92;;;-1.37;100.00
38612;BME280;24368;52.156;20.788;2023-11-21T19:15:43;100721.30;;;-1.37;100.00
38612;BME280;24368;52.156;20.788;2023-11-21T19:20:45;100729.09;;;-1.41;100.00
38612;BME280;24368;52.156;20.788;2023-11-21T19:25:46;100734.13;;;-1.41;100.00
38612;BME280;24368;52.156;20.788;2023-11-21T19:30:47;100745.14;;;-1.44;100.00
38612;BME280;24368;52.156;20.788;2023-11-21T19:35:48;100752.86;;;-1.47;100.00
38612;BME280;24368;52.156;20.788;2023-11-21T19:40:49;100762.51;;;-1.42;100.00
38612;BME280;24368;52.156;20.788;2023-11-21T19:45:51;100770.00;;;-1.40;100.00
38612;BME280;24368;52.156;20.788;2023-11-21T19:50:52;100777.70;;;-1.46;100.00
38612;BME280;24368;52.156;20.788;2023-11-21T19:55:54;100775.40;;;-1.48;100.00
38612;BME280;24368;52.156;20.788;2023-11-21T20:00:55;100780.58;;;-1.52;100.00
38612;BME280;24368;52.156;20.788;2023-11-21T20:05:56;100791.73;;;-1.50;100.00
38612;BME280;24368;52.156;20.788;2023-11-21T20:10:57;100801.56;;;-1.42;100.00
38612;BME280;24368;52.156;20.788;2023-11-21T20:15:59;100808.08;;;-1.49;100.00
38612;BME280;24368;52.156;20.788;2023-11-21T20:21:00;100815.11;;;-1.51;100.00
38612;BME280;24368;52.156;20.788;2023-11-21T20:26:03;100817.27;;;-1.54;100.00
38612;BME280;24368;52.156;20.788;2023-11-21T20:31:04;100822.70;;;-1.51;100.00
38612;BME280;24368;52.156;20.788;2023-11-21T20:36:06;100834.58;;;-1.51;100.00
38612;BME280;24368;52.156;20.788;2023-11-21T20:41:08;100844.75;;;-1.54;100.00
38612;BME280;24368;52.156;20.788;2023-11-21T20:46:13;100859.95;;;-1.54;100.00
38612;BME280;24368;52.156;20.788;2023-11-21T20:51:15;100860.52;;;-1.63;100.00
38612;BME280;24368;52.156;20.788;2023-11-21T20:56:16;100870.08;;;-1.68;100.00
38612;BME280;24368;52.156;20.788;2023-11-21T21:01:17;100875.02;;;-1.63;100.00
38612;BME280;24368;52.156;20.788;2023-11-21T21:06:19;100876.54;;;-1.62;100.00
38612;BME280;24368;52.156;20.788;2023-11-21T21:11:22;100888.45;;;-1.61;100.00
38612;BME280;24368;52.156;20.788;2023-11-21T21:16:23;100903.15;;;-1.62;100.00
38612;BME280;24368;52.156;20.788;2023-11-21T21:21:31;100908.15;;;-1.71;100.00
38612;BME280;24368;52.156;20.788;2023-11-21T21:26:33;100914.16;;;-1.74;100.00
38612;BME280;24368;52.156;20.788;2023-11-21T21:31:36;100914.45;;;-1.72;100.00
38612;BME280;24368;52.156;20.788;2023-11-21T21:36:37;100923.45;;;-1.68;100.00
38612;BME280;24368;52.156;20.788;2023-11-21T21:41:40;100929.11;;;-1.68;100.00
38612;BME280;24368;52.156;20.788;2023-11-21T21:46:41;100935.27;;;-1.74;100.00
38612;BME280;24368;52.156;20.788;2023-11-21T21:51:42;100942.78;;;-1.81;100.00
38612;BME280;24368;52.156;20.788;2023-11-21T21:56:44;100951.92;;;-1.77;100.00
38612;BME280;24368;52.156;20.788;2023-11-21T22:01:45;100958.92;;;-1.75;100.00
38612;BME280;24368;52.156;20.788;2023-11-21T22:06:47;100964.72;;;-1.77;100.00
38612;BME280;24368;52.156;20.788;2023-11-21T22:11:49;100969.31;;;-1.80;100.00
38612;BME280;24368;52.156;20.788;2023-11-21T22:16:50;100974.02;;;-1.85;100.00
38612;BME280;24368;52.156;20.788;2023-11-21T22:21:51;100982.23;;;-1.88;100.00
38612;BME280;24368;52.156;20.788;2023-11-21T22:26:53;100983.95;;;-1.87;100.00
38612;BME280;24368;52.156;20.788;2023-11-21T22:31:56;100986.98;;;-1.85;100.00
38612;BME280;24368;52.156;20.788;2023-11-21T22:36:57;100992.65;;;-1.80;100.00
38612;BME280;24368;52.156;20.788;2023-11-21T22:41:59;101000.23;;;-1.84;100.00
38612;BME280;24368;52.156;20.788;2023-11-21T22:47:00;101003.54;;;-1.89;100.00
38612;BME280;24368;52.156;20.788;2023-11-21T22:52:02;101000.02;;;-1.91;100.00
38612;BME280;24368;52.156;20.788;2023-11-21T22:57:04;101003.11;;;-1.96;100.00
38612;BME280;24368;52.156;20.788;2023-11-21T23:02:05;101004.48;;;-1.95;100.00
38612;BME280;24368;52.156;20.788;2023-11-21T23:07:06;101007.73;;;-1.90;100.00
38612;BME280;24368;52.156;20.788;2023-11-21T23:12:07;101012.70;;;-1.89;100.00
38612;BME280;24368;52.156;20.788;2023-11-21T23:17:09;101023.71;;;-1.93;100.00
38612;BME280;24368;52.156;20.788;2023-11-21T23:22:10;101026.16;;;-1.93;100.00
38612;BME280;24368;52.156;20.788;2023-11-21T23:27:11;101038.94;;;-1.98;100.00
38612;BME280;24368;52.156;20.788;2023-11-21T23:32:12;101044.16;;;-1.99;100.00
38612;BME280;24368;52.156;20.788;2023-11-21T23:37:15;101046.07;;;-2.04;100.00
38612;BME280;24368;52.156;20.788;2023-11-21T23:42:17;101047.34;;;-2.06;100.00
38612;BME280;24368;52.156;20.788;2023-11-21T23:47:21;101056.19;;;-2.02;100.00
38612;BME280;24368;52.156;20.788;2023-11-21T23:52:22;101057.11;;;-1.99;100.00
38612;BME280;24368;52.156;20.788;2023-11-21T23:57:23;101056.43;;;-1.95;100.00
